createdAt,value
2022-09-26T00:00:09.864Z,4.70
2022-09-26T00:05:01.559Z,4.43
2022-09-26T00:09:56.220Z,4.43
2022-09-26T00:14:48.304Z,4.50
2022-09-26T00:19:40.042Z,4.77
2022-09-26T00:24:32.155Z,4.03
2022-09-26T00:29:23.914Z,4.40
2022-09-26T00:34:20.648Z,3.90
2022-09-26T00:39:15.830Z,3.60
2022-09-26T00:44:32.757Z,2.87
2022-09-26T00:49:35.017Z,2.70
2022-09-26T00:54:31.258Z,2.30
2022-09-26T00:59:32.504Z,2.47
2022-09-26T01:04:28.317Z,2.20
2022-09-26T01:09:21.140Z,2.00
2022-09-26T01:14:13.735Z,2.03
2022-09-26T01:19:35.920Z,2.50
2022-09-26T01:25:14.157Z,2.33
2022-09-26T01:30:27.268Z,2.50
2022-09-26T01:35:43.765Z,2.60
2022-09-26T01:41:00.198Z,2.70
2022-09-26T01:46:26.039Z,2.60
2022-09-26T01:52:19.467Z,2.70
2022-09-26T01:57:21.221Z,2.57
2022-09-26T02:02:22.101Z,3.10
2022-09-26T02:07:25.008Z,2.57
2022-09-26T02:12:36.562Z,2.80
2022-09-26T02:17:38.110Z,2.80
2022-09-26T02:22:34.385Z,2.97
2022-09-26T02:27:27.812Z,2.60
2022-09-26T02:32:28.084Z,2.87
2022-09-26T02:37:23.869Z,2.87
2022-09-26T02:42:53.558Z,2.83
2022-09-26T02:48:14.045Z,3.20
2022-09-26T02:53:32.783Z,3.50
2022-09-26T02:58:38.837Z,3.10
2022-09-26T03:03:52.097Z,3.40
2022-09-26T03:08:49.142Z,3.33
2022-09-26T03:13:42.218Z,3.53
2022-09-26T03:18:55.196Z,3.87
2022-09-26T03:23:47.139Z,3.50
2022-09-26T03:28:38.881Z,4.00
2022-09-26T03:33:30.660Z,3.83
2022-09-26T03:38:23.534Z,3.40
2022-09-26T03:43:15.223Z,3.83
2022-09-26T03:48:07.003Z,3.70
2022-09-26T03:58:05.524Z,4.30
2022-09-26T04:03:02.934Z,3.77
2022-09-26T04:07:55.671Z,3.23
2022-09-26T04:12:47.451Z,3.63
2022-09-26T04:17:39.218Z,3.60
2022-09-26T04:22:30.944Z,4.03
2022-09-26T04:27:27.347Z,3.57
2022-09-26T04:32:19.857Z,3.83
2022-09-26T04:37:13.366Z,4.10
2022-09-26T04:42:05.303Z,3.97
2022-09-26T04:46:57.080Z,3.73
2022-09-26T04:51:49.066Z,3.83
2022-09-26T04:56:41.555Z,3.63
2022-09-26T05:01:33.614Z,3.77
2022-09-26T05:06:25.782Z,3.70
2022-09-26T05:11:18.747Z,4.00
2022-09-26T05:16:13.391Z,4.30
2022-09-26T05:21:07.670Z,4.77
2022-09-26T05:26:18.323Z,5.40
2022-09-26T05:31:13.650Z,7.87
2022-09-26T05:36:06.241Z,5.90
2022-09-26T05:40:59.491Z,6.30
2022-09-26T05:45:51.348Z,6.27
2022-09-26T05:50:44.083Z,6.43
2022-09-26T05:55:39.761Z,6.47
2022-09-26T06:00:31.901Z,6.60
2022-09-26T06:05:25.463Z,5.43
2022-09-26T06:10:17.609Z,5.03
2022-09-26T06:15:10.193Z,5.47
2022-09-26T06:20:03.902Z,4.70
2022-09-26T06:24:59.102Z,4.10
2022-09-26T06:29:52.049Z,4.20
2022-09-26T06:34:49.095Z,4.50
2022-09-26T06:39:41.775Z,4.07
2022-09-26T06:44:35.375Z,3.57
2022-09-26T06:49:29.246Z,3.37
2022-09-26T06:59:27.221Z,3.90
2022-09-26T07:24:46.650Z,3.05
2022-09-26T07:29:39.539Z,3.03
2022-09-26T07:39:37.469Z,3.00
2022-09-26T07:45:17.052Z,2.80
2022-09-26T07:50:01.184Z,3.22
2022-09-26T08:00:00.651Z,3.33
2022-09-26T08:25:21.526Z,2.78
2022-09-26T08:30:13.747Z,3.13
2022-09-26T08:46:46.267Z,2.70
2022-09-26T08:57:03.018Z,2.50
2022-09-26T09:13:17.654Z,2.33
2022-09-26T09:24:22.389Z,2.83
2022-09-26T09:40:28.788Z,2.55
2022-09-26T09:50:59.153Z,2.30
2022-09-26T09:56:27.981Z,1.98
2022-09-26T10:01:35.438Z,1.98
2022-09-26T10:06:46.407Z,2.17
2022-09-26T10:11:46.193Z,2.10
2022-09-26T10:33:12.808Z,2.70
2022-09-26T11:11:15.877Z,2.15
2022-09-26T11:32:41.747Z,2.70
2022-09-26T11:49:39.484Z,2.80
2022-09-26T12:11:25.530Z,1.95
2022-09-26T12:16:41.207Z,1.90
2022-09-26T12:22:36.809Z,1.73
2022-09-26T12:27:46.335Z,1.85
2022-09-26T12:39:13.239Z,1.58
2022-09-26T12:49:55.344Z,1.40
2022-09-26T13:12:56.403Z,1.05
2022-09-26T13:23:31.378Z,1.13
2022-09-26T13:55:31.825Z,1.20
2022-09-26T14:33:43.359Z,1.10
2022-09-26T14:54:33.531Z,0.90
2022-09-26T14:59:26.611Z,1.10
2022-09-26T15:59:13.044Z,1.08
2022-09-26T16:20:46.182Z,1.10
2022-09-26T16:25:49.576Z,1.65
2022-09-26T16:42:03.401Z,1.50
2022-09-26T16:47:03.015Z,1.58
2022-09-26T16:57:54.382Z,1.27
2022-09-26T17:02:50.403Z,1.35
2022-09-26T17:07:46.502Z,1.63
2022-09-26T17:12:39.701Z,1.63
2022-09-26T17:22:37.918Z,1.58
2022-09-26T17:27:38.917Z,1.75
2022-09-26T17:37:53.764Z,1.60
2022-09-26T17:48:04.038Z,1.63
2022-09-26T17:53:00.803Z,1.90
2022-09-26T17:57:54.424Z,1.73
2022-09-26T18:08:29.174Z,2.00
2022-09-26T18:13:28.417Z,2.00
2022-09-26T18:18:31.124Z,1.70
2022-09-26T18:23:30.922Z,1.65
2022-09-26T18:28:27.454Z,2.23
2022-09-26T18:38:25.817Z,1.90
2022-09-26T18:43:27.270Z,1.90
2022-09-26T18:48:33.131Z,1.93
2022-09-26T18:53:37.774Z,1.90
2022-09-26T18:58:33.214Z,1.80
2022-09-26T19:03:32.078Z,1.70
2022-09-26T19:14:00.302Z,1.67
2022-09-26T19:18:55.937Z,1.30
2022-09-26T19:23:49.673Z,1.60
2022-09-26T19:28:41.694Z,1.33
2022-09-26T19:33:43.146Z,1.43
2022-09-26T19:38:35.554Z,1.60
2022-09-26T19:43:27.511Z,1.23
2022-09-26T19:48:23.664Z,1.33
2022-09-26T19:53:19.546Z,1.30
2022-09-26T19:58:25.954Z,1.40
2022-09-26T20:03:25.725Z,1.10
2022-09-26T20:08:25.054Z,1.40
2022-09-26T20:13:17.725Z,1.20
2022-09-26T20:18:17.816Z,1.60
2022-09-26T20:23:24.424Z,1.20
2022-09-26T20:28:16.959Z,1.23
2022-09-26T20:33:10.950Z,1.20
2022-09-26T20:43:32.154Z,1.30
2022-09-26T20:48:28.721Z,1.60
2022-09-26T20:53:25.423Z,1.10
2022-09-26T20:58:19.771Z,1.13
2022-09-26T21:03:16.317Z,1.27
2022-09-26T21:08:22.725Z,1.23
2022-09-26T21:13:17.096Z,1.00
2022-09-26T21:18:30.260Z,1.40
2022-09-26T21:23:25.974Z,0.93
2022-09-26T21:28:28.619Z,1.13
2022-09-26T21:33:22.663Z,1.00
2022-09-26T21:38:16.070Z,0.97
2022-09-26T21:43:18.857Z,1.13
2022-09-26T21:48:12.937Z,1.13
2022-09-26T21:53:20.989Z,1.10
2022-09-26T22:03:28.980Z,1.40
2022-09-26T22:08:20.909Z,1.20
2022-09-26T22:18:25.090Z,1.10
2022-09-26T22:23:18.081Z,1.30
2022-09-26T22:28:10.452Z,1.30
2022-09-26T22:33:02.421Z,1.40
2022-09-26T22:37:54.495Z,1.20
2022-09-26T22:42:46.547Z,1.30
2022-09-26T22:47:38.379Z,1.20
2022-09-26T22:52:31.079Z,1.33
2022-09-26T22:57:24.925Z,1.20
2022-09-26T23:02:20.868Z,1.10
2022-09-26T23:07:15.312Z,1.17
2022-09-26T23:12:15.658Z,1.00
2022-09-26T23:17:08.067Z,1.30
2022-09-26T23:22:01.327Z,1.17
2022-09-26T23:26:53.710Z,1.00
2022-09-26T23:31:54.781Z,0.87
2022-09-26T23:41:56.148Z,0.70
2022-09-26T23:46:48.671Z,1.10
2022-09-26T23:51:41.126Z,0.83
2022-09-26T23:56:32.828Z,0.87
